Turks and Caicos Islands Weather

[source: ADDS]
METAR
MBPV 262130Z 2700/2800 05014KT 9999 SCT018 MBGT 262130Z 2700/2800 05014KT 9999 SCT018 TAF
MBPV 262130Z 2700/2800 05014KT 9999 SCT018 =
MBGT 262130Z 2700/2800 05014KT 9999 SCT018 =
SR / SS: 10:06 / 23:26 UTC (MBPV 2015-05-26)
E-mail Print PDF
Weather